^^
Grace C. Lehan Memorial Weather Station Historical Data
Daily Summary for March 24, 2022 Units:  Both    English   Metric
Daily Weekly Monthly Yearly
  High: Low: Average:
Temperature: 30.6 °F /  -0.8 °C 26.6 °F /  -3 °C 28.1 °F /  -2.2 °C
Dew Point: 18.1 °F /  -7.7 °C 14 °F /  -10 °C 16 °F /  -8.9 °C
Humidity: 63.5% 49.8% 60%
Wind Speed: 8.3mph /  13.4km/h - 3.1mph /  5km/h
Wind Gust: 19mph /  30.6km/h - -
Wind- - WNW
Pressure: 30.48 in /  1032.1 hPa 30.24 in /  1023.9 hPa -
Precipitation: 0.00 in /  0 mm    
 
 
Tabular Data for March 24, 2022
Time Temperature Dew Point Pressure Wind Wind Speed Wind Gust Humidity Rainfall Rate (Hourly) solar
00:04 30.3 °F /  -0.9 °C 18.1 °F /  -7.7 °C 30.24in /  1023.9hPa NW 8.3mph /  13.4km/h 18mph /  29km/h 60% 0.00in /  0mm 0 W/m2
00:09 30.1 °F /  -1.1 °C 17.9 °F /  -7.8 °C 30.25in /  1024.3hPa WNW 8mph /  12.9km/h 17mph /  27.4km/h 59.9% 0.00in /  0mm 0 W/m2
00:14 30 °F /  -1.1 °C 17.6 °F /  -8 °C 30.25in /  1024.3hPa NW 8.1mph /  13km/h 18mph /  29km/h 59.7% 0.00in /  0mm 0 W/m2
00:19 29.9 °F /  -1.2 °C 17.7 °F /  -7.9 °C 30.26in /  1024.6hPa WNW 4.5mph /  7.2km/h 18mph /  29km/h 59.9% 0.00in /  0mm 0 W/m2
00:24 29.8 °F /  -1.2 °C 17.9 °F /  -7.8 °C 30.26in /  1024.6hPa NW 6.1mph /  9.8km/h 18mph /  29km/h 60.7% 0.00in /  0mm 0 W/m2
00:29 29.8 °F /  -1.2 °C 17.7 °F /  -7.9 °C 30.26in /  1024.6hPa NW 6.4mph /  10.3km/h 18mph /  29km/h 60.3% 0.00in /  0mm 0 W/m2
00:34 29.7 °F /  -1.3 °C 17.8 °F /  -7.9 °C 30.25in /  1024.3hPa NW 6.9mph /  11.1km/h 18mph /  29km/h 60.7% 0.00in /  0mm 0 W/m2
00:39 29.6 °F /  -1.3 °C 17.5 °F /  -8.1 °C 30.26in /  1024.6hPa NW 6.2mph /  10km/h 19mph /  30.6km/h 60% 0.00in /  0mm 0 W/m2
00:44 29.5 °F /  -1.4 °C 17.4 °F /  -8.1 °C 30.26in /  1024.6hPa NW 4.5mph /  7.2km/h 19mph /  30.6km/h 60% 0.00in /  0mm 0 W/m2
00:49 29.4 °F /  -1.4 °C 17.3 °F /  -8.2 °C 30.27in /  1024.9hPa NNW 5.5mph /  8.9km/h 19mph /  30.6km/h 60.2% 0.00in /  0mm 0 W/m2
00:54 29.4 °F /  -1.4 °C 17.2 °F /  -8.2 °C 30.27in /  1024.9hPa NW 6.8mph /  10.9km/h 19mph /  30.6km/h 60% 0.00in /  0mm 0 W/m2
00:59 29.3 °F /  -1.5 °C 17.1 °F /  -8.3 °C 30.28in /  1025.3hPa NW 6.9mph /  11.1km/h 19mph /  30.6km/h 60% 0.00in /  0mm 0 W/m2
01:04 29.1 °F /  -1.6 °C 17.3 °F /  -8.2 °C 30.28in /  1025.3hPa NW 7.5mph /  12.1km/h 19mph /  30.6km/h 60.7% 0.00in /  0mm 0 W/m2
01:09 29 °F /  -1.7 °C 17.1 °F /  -8.3 °C 30.28in /  1025.3hPa NW 7.2mph /  11.6km/h 16mph /  25.7km/h 60.5% 0.00in /  0mm 0 W/m2
01:14 29 °F /  -1.7 °C 17.2 °F /  -8.2 °C 30.28in /  1025.3hPa NW 6.8mph /  10.9km/h 16mph /  25.7km/h 61% 0.00in /  0mm 0 W/m2
01:19 28.9 °F /  -1.7 °C 17.2 °F /  -8.2 °C 30.28in /  1025.3hPa NW 7.1mph /  11.4km/h 16mph /  25.7km/h 61% 0.00in /  0mm 0 W/m2
01:24 28.8 °F /  -1.8 °C 17.1 °F /  -8.3 °C 30.29in /  1025.6hPa NW 8.3mph /  13.4km/h 19mph /  30.6km/h 61% 0.00in /  0mm 0 W/m2
01:29 28.7 °F /  -1.8 °C 17.3 °F /  -8.2 °C 30.29in /  1025.6hPa NW 6.3mph /  10.1km/h 19mph /  30.6km/h 61.7% 0.00in /  0mm 0 W/m2
01:34 28.7 °F /  -1.8 °C 17.2 °F /  -8.2 °C 30.29in /  1025.6hPa NW 4.5mph /  7.2km/h 19mph /  30.6km/h 61.5% 0.00in /  0mm 0 W/m2
01:39 28.6 °F /  -1.9 °C 17.3 °F /  -8.2 °C 30.28in /  1025.3hPa NW 4mph /  6.4km/h 12mph /  19.3km/h 62.2% 0.00in /  0mm 0 W/m2
01:44 28.6 °F /  -1.9 °C 17.5 °F /  -8.1 °C 30.28in /  1025.3hPa NW 7mph /  11.3km/h 12mph /  19.3km/h 62.7% 0.00in /  0mm 0 W/m2
01:49 28.5 °F /  -1.9 °C 17.4 °F /  -8.1 °C 30.30in /  1026hPa NW 6.9mph /  11.1km/h 18mph /  29km/h 62.5% 0.00in /  0mm 0 W/m2
01:54 28.5 °F /  -1.9 °C 17.2 °F /  -8.2 °C 30.30in /  1026hPa NW 6.9mph /  11.1km/h 18mph /  29km/h 62% 0.00in /  0mm 0 W/m2
01:59 28.4 °F /  -2 °C 17.1 °F /  -8.3 °C 30.30in /  1026hPa NW 6.5mph /  10.5km/h 18mph /  29km/h 62% 0.00in /  0mm 0 W/m2
02:04 28.4 °F /  -2 °C 17 °F /  -8.3 °C 30.30in /  1026hPa NW 5.3mph /  8.5km/h 18mph /  29km/h 62% 0.00in /  0mm 0 W/m2
02:09 28.3 °F /  -2.1 °C 17 °F /  -8.3 °C 30.29in /  1025.6hPa NNW 5.2mph /  8.4km/h 16mph /  25.7km/h 62% 0.00in /  0mm 0 W/m2
02:14 28.3 °F /  -2.1 °C 16.9 °F /  -8.4 °C 30.30in /  1026hPa NW 7.4mph /  11.9km/h 16mph /  25.7km/h 62% 0.00in /  0mm 0 W/m2
02:19 28.2 °F /  -2.1 °C 16.9 °F /  -8.4 °C 30.30in /  1026hPa NW 5.1mph /  8.2km/h 16mph /  25.7km/h 62% 0.00in /  0mm 0 W/m2
02:24 28.1 °F /  -2.2 °C 16.8 °F /  -8.4 °C 30.30in /  1026hPa NW 5mph /  8km/h 16mph /  25.7km/h 62.1% 0.00in /  0mm 0 W/m2
02:29 28.1 °F /  -2.2 °C 17 °F /  -8.3 °C 30.30in /  1026hPa NNW 3.8mph /  6.1km/h 16mph /  25.7km/h 62.7% 0.00in /  0mm 0 W/m2
02:34 28 °F /  -2.2 °C 16.9 °F /  -8.4 °C 30.30in /  1026hPa NNW 4.8mph /  7.7km/h 16mph /  25.7km/h 62.6% 0.00in /  0mm 0 W/m2
02:39 28 °F /  -2.2 °C 17.1 °F /  -8.3 °C 30.30in /  1026hPa NW 3.7mph /  6km/h 13mph /  20.9km/h 63% 0.00in /  0mm 0 W/m2
02:44 28 °F /  -2.2 °C 16.9 °F /  -8.4 °C 30.30in /  1026hPa NW 5.3mph /  8.5km/h 15mph /  24.1km/h 62.6% 0.00in /  0mm 0 W/m2
02:49 27.9 °F /  -2.3 °C 16.6 °F /  -8.6 °C 30.30in /  1026hPa WNW 2.4mph /  3.9km/h 15mph /  24.1km/h 62% 0.00in /  0mm 0 W/m2
02:54 27.9 °F /  -2.3 °C 16.6 °F /  -8.6 °C 30.30in /  1026hPa NW 4mph /  6.4km/h 15mph /  24.1km/h 62% 0.00in /  0mm 0 W/m2
02:59 27.8 °F /  -2.3 °C 16.5 °F /  -8.6 °C 30.29in /  1025.6hPa WNW 3.8mph /  6.1km/h 15mph /  24.1km/h 62% 0.00in /  0mm 0 W/m2
03:04 27.7 °F /  -2.4 °C 16.4 °F /  -8.7 °C 30.30in /  1026hPa NW 3.8mph /  6.1km/h 15mph /  24.1km/h 62% 0.00in /  0mm 0 W/m2
03:09 27.7 °F /  -2.4 °C 16.4 °F /  -8.7 °C 30.30in /  1026hPa NW 5.7mph /  9.2km/h 13mph /  20.9km/h 62.2% 0.00in /  0mm 0 W/m2
03:14 27.6 °F /  -2.4 °C 16.3 °F /  -8.7 °C 30.29in /  1025.6hPa NW 7.4mph /  11.9km/h 13mph /  20.9km/h 62% 0.00in /  0mm 0 W/m2
03:19 27.5 °F /  -2.5 °C 16 °F /  -8.9 °C 30.30in /  1026hPa NW 4.5mph /  7.2km/h 13mph /  20.9km/h 61.4% 0.00in /  0mm 0 W/m2
03:24 27.4 °F /  -2.6 °C 15.8 °F /  -9 °C 30.30in /  1026hPa NW 3.4mph /  5.5km/h 13mph /  20.9km/h 61.4% 0.00in /  0mm 0 W/m2
03:29 27.3 °F /  -2.6 °C 16 °F /  -8.9 °C 30.30in /  1026hPa NW 2.2mph /  3.5km/h 13mph /  20.9km/h 62% 0.00in /  0mm 0 W/m2
03:34 27.2 °F /  -2.7 °C 15.9 °F /  -8.9 °C 30.31in /  1026.3hPa NW 1.5mph /  2.4km/h 13mph /  20.9km/h 62% 0.00in /  0mm 0 W/m2
03:39 27.2 °F /  -2.7 °C 15.9 °F /  -8.9 °C 30.31in /  1026.3hPa NW 8mph /  12.9km/h 17mph /  27.4km/h 61.8% 0.00in /  0mm 0 W/m2
03:44 27.2 °F /  -2.7 °C 15.9 °F /  -8.9 °C 30.32in /  1026.6hPa NW 5.5mph /  8.9km/h 17mph /  27.4km/h 62% 0.00in /  0mm 0 W/m2
03:49 27.1 °F /  -2.7 °C 15.9 °F /  -8.9 °C 30.32in /  1026.6hPa NNW 2.3mph /  3.7km/h 17mph /  27.4km/h 62% 0.00in /  0mm 0 W/m2
03:54 27.1 °F /  -2.7 °C 15.9 °F /  -8.9 °C 30.32in /  1026.6hPa NNW 1.7mph /  2.7km/h 17mph /  27.4km/h 62% 0.00in /  0mm 0 W/m2
03:59 27.1 °F /  -2.7 °C 15.8 °F /  -9 °C 30.32in /  1026.6hPa NW 4.6mph /  7.4km/h 17mph /  27.4km/h 62% 0.00in /  0mm 0 W/m2
04:00 27.1 °F /  -2.7 °C 15.8 °F /  -9 °C 30.32in /  1026.6hPa NNW 5mph /  8km/h 17mph /  27.4km/h 62% 0.00in /  0mm 0 W/m2
04:09 27.1 °F /  -2.7 °C 15.8 °F /  -9 °C 30.33in /  1027hPa NNW 1.1mph /  1.8km/h 7mph /  11.3km/h 62% 0.00in /  0mm 0 W/m2
04:14 27.1 °F /  -2.7 °C 15.8 °F /  -9 °C 30.33in /  1027hPa NW 3.8mph /  6.1km/h 13mph /  20.9km/h 62% 0.00in /  0mm 0 W/m2
04:19 27 °F /  -2.8 °C 15.7 °F /  -9.1 °C 30.33in /  1027hPa NW 4.7mph /  7.6km/h 13mph /  20.9km/h 62% 0.00in /  0mm 0 W/m2
04:24 27 °F /  -2.8 °C 15.6 °F /  -9.1 °C 30.33in /  1027hPa WNW 2.5mph /  4km/h 13mph /  20.9km/h 61.8% 0.00in /  0mm 0 W/m2
04:29 26.9 °F /  -2.8 °C 15.6 °F /  -9.1 °C 30.34in /  1027.3hPa NW 0.2mph /  0.3km/h 13mph /  20.9km/h 61.7% 0.00in /  0mm 0 W/m2
04:34 26.9 °F /  -2.8 °C 15.6 °F /  -9.1 °C 30.35in /  1027.7hPa Calm   13mph /  20.9km/h 62% 0.00in /  0mm 0 W/m2
04:39 26.9 °F /  -2.8 °C 15.6 °F /  -9.1 °C 30.35in /  1027.7hPa NW 0.5mph /  0.8km/h 4mph /  6.4km/h 62% 0.00in /  0mm 0 W/m2
04:44 26.9 °F /  -2.8 °C 15.6 °F /  -9.1 °C 30.35in /  1027.7hPa WNW 1.7mph /  2.7km/h 6mph /  9.7km/h 62% 0.00in /  0mm 0 W/m2
04:49 26.9 °F /  -2.8 °C 15.6 °F /  -9.1 °C 30.36in /  1028hPa WNW 0.3mph /  0.5km/h 6mph /  9.7km/h 62% 0.00in /  0mm 0 W/m2
04:54 26.9 °F /  -2.8 °C 15.7 °F /  -9.1 °C 30.36in /  1028hPa Calm   6mph /  9.7km/h 62% 0.00in /  0mm 0 W/m2
04:59 26.9 °F /  -2.8 °C 15.6 °F /  -9.1 °C 30.36in /  1028hPa NW 0.3mph /  0.5km/h 6mph /  9.7km/h 62% 0.00in /  0mm 0 W/m2
05:04 26.9 °F /  -2.8 °C 15.6 °F /  -9.1 °C 30.37in /  1028.3hPa NW 1mph /  1.6km/h 6mph /  9.7km/h 62% 0.00in /  0mm 0 W/m2
05:09 26.9 °F /  -2.8 °C 15.7 °F /  -9.1 °C 30.36in /  1028hPa NW 0.2mph /  0.3km/h 6mph /  9.7km/h 62.2% 0.00in /  0mm 0 W/m2
05:14 26.9 °F /  -2.8 °C 15.6 °F /  -9.1 °C 30.37in /  1028.3hPa NW 0.9mph /  1.4km/h 6mph /  9.7km/h 62% 0.00in /  0mm 0 W/m2
05:19 26.8 °F /  -2.9 °C 15.6 °F /  -9.1 °C 30.37in /  1028.3hPa Calm   6mph /  9.7km/h 62% 0.00in /  0mm 0 W/m2
05:24 26.8 °F /  -2.9 °C 15.8 °F /  -9 °C 30.36in /  1028hPa NW 0.5mph /  0.8km/h 6mph /  9.7km/h 62.8% 0.00in /  0mm 0 W/m2
05:29 26.7 °F /  -2.9 °C 15.8 °F /  -9 °C 30.38in /  1028.7hPa NW 0.1mph /  0.2km/h 6mph /  9.7km/h 63% 0.00in /  0mm 0 W/m2
05:34 26.7 °F /  -2.9 °C 15.9 °F /  -8.9 °C 30.38in /  1028.7hPa WNW 1.2mph /  1.9km/h 7mph /  11.3km/h 63.2% 0.00in /  0mm 0 W/m2
05:39 26.7 °F /  -2.9 °C 15.8 °F /  -9 °C 30.39in /  1029hPa WNW 0.5mph /  0.8km/h 7mph /  11.3km/h 63% 0.00in /  0mm 0 W/m2
05:44 26.6 °F /  -3 °C 15.9 °F /  -8.9 °C 30.39in /  1029hPa WNW 0.5mph /  0.8km/h 7mph /  11.3km/h 63.5% 0.00in /  0mm 0 W/m2
05:49 26.7 °F /  -2.9 °C 15.8 °F /  -9 °C 30.40in /  1029.3hPa NW 0.8mph /  1.3km/h 7mph /  11.3km/h 63.2% 0.00in /  0mm 0 W/m2
05:54 26.7 °F /  -2.9 °C 15.9 °F /  -8.9 °C 30.40in /  1029.3hPa Calm   7mph /  11.3km/h 63.3% 0.00in /  0mm 0 W/m2
05:59 26.7 °F /  -2.9 °C 15.9 °F /  -8.9 °C 30.40in /  1029.3hPa NW 1.4mph /  2.3km/h 7mph /  11.3km/h 63.4% 0.00in /  0mm 0 W/m2
06:04 26.7 °F /  -2.9 °C 15.8 °F /  -9 °C 30.41in /  1029.7hPa NW 0.6mph /  1km/h 7mph /  11.3km/h 63% 0.00in /  0mm 0 W/m2
06:09 26.7 °F /  -2.9 °C 15.8 °F /  -9 °C 30.42in /  1030hPa NW 0.2mph /  0.3km/h 6mph /  9.7km/h 63% 0.00in /  0mm 0 W/m2
06:14 26.8 °F /  -2.9 °C 15.9 °F /  -8.9 °C 30.41in /  1029.7hPa WNW 4.9mph /  7.9km/h 11mph /  17.7km/h 63% 0.00in /  0mm 0 W/m2
06:19 26.8 °F /  -2.9 °C 15.9 °F /  -8.9 °C 30.41in /  1029.7hPa WNW 2mph /  3.2km/h 11mph /  17.7km/h 63% 0.00in /  0mm 0 W/m2
06:24 26.8 °F /  -2.9 °C 15.5 °F /  -9.2 °C 30.42in /  1030hPa WNW 1mph /  1.6km/h 11mph /  17.7km/h 62% 0.00in /  0mm 0 W/m2
06:29 26.8 °F /  -2.9 °C 15.9 °F /  -8.9 °C 30.41in /  1029.7hPa WNW 1.2mph /  1.9km/h 11mph /  17.7km/h 63% 0.00in /  0mm 0 W/m2
06:34 26.8 °F /  -2.9 °C 15.8 °F /  -9 °C 30.41in /  1029.7hPa NW 0.9mph /  1.4km/h 11mph /  17.7km/h 62.7% 0.00in /  0mm 0 W/m2
06:39 26.9 °F /  -2.8 °C 16 °F /  -8.9 °C 30.41in /  1029.7hPa NW 1.3mph /  2.1km/h 7mph /  11.3km/h 63% 0.00in /  0mm 5 W/m2
06:44 26.9 °F /  -2.8 °C 16 °F /  -8.9 °C 30.41in /  1029.7hPa NW 2.5mph /  4km/h 7mph /  11.3km/h 63% 0.00in /  0mm 9 W/m2
06:49 26.9 °F /  -2.8 °C 16 °F /  -8.9 °C 30.42in /  1030hPa NW 2.5mph /  4km/h 9mph /  14.5km/h 63% 0.00in /  0mm 12 W/m2
06:54 26.8 °F /  -2.9 °C 15.9 °F /  -8.9 °C 30.42in /  1030hPa NW 1.1mph /  1.8km/h 9mph /  14.5km/h 63% 0.00in /  0mm 14 W/m2
06:59 26.9 °F /  -2.8 °C 16 °F /  -8.9 °C 30.43in /  1030.4hPa WNW 2.1mph /  3.4km/h 9mph /  14.5km/h 63% 0.00in /  0mm 19 W/m2
07:04 26.9 °F /  -2.8 °C 16 °F /  -8.9 °C 30.43in /  1030.4hPa NW 1.5mph /  2.4km/h 9mph /  14.5km/h 63% 0.00in /  0mm 28 W/m2
07:09 27 °F /  -2.8 °C 16.1 °F /  -8.8 °C 30.42in /  1030hPa WNW 3.2mph /  5.1km/h 11mph /  17.7km/h 63.1% 0.00in /  0mm 33 W/m2
07:14 27 °F /  -2.8 °C 16.1 °F /  -8.8 °C 30.44in /  1030.7hPa NW 3.1mph /  5km/h 11mph /  17.7km/h 62.9% 0.00in /  0mm 42 W/m2
07:19 27 °F /  -2.8 °C 16.1 °F /  -8.8 °C 30.44in /  1030.7hPa NW 2.1mph /  3.4km/h 11mph /  17.7km/h 63% 0.00in /  0mm 49 W/m2
07:24 27.1 °F /  -2.7 °C 16.1 °F /  -8.8 °C 30.44in /  1030.7hPa NW 3mph /  4.8km/h 11mph /  17.7km/h 62.8% 0.00in /  0mm 42 W/m2
07:29 27.2 °F /  -2.7 °C 16 °F /  -8.9 °C 30.44in /  1030.7hPa NW 3mph /  4.8km/h 11mph /  17.7km/h 62.3% 0.00in /  0mm 42 W/m2
07:34 27.3 °F /  -2.6 °C 16.2 °F /  -8.8 °C 30.44in /  1030.7hPa NNW 2.8mph /  4.5km/h 11mph /  17.7km/h 62.7% 0.00in /  0mm 46 W/m2
07:39 27.4 °F /  -2.6 °C 16.3 °F /  -8.7 °C 30.45in /  1031hPa NNW 3.4mph /  5.5km/h 10mph /  16.1km/h 62.6% 0.00in /  0mm 46 W/m2
07:44 27.5 °F /  -2.5 °C 16.5 °F /  -8.6 °C 30.45in /  1031hPa NNW 0.2mph /  0.3km/h 10mph /  16.1km/h 62.8% 0.00in /  0mm 32 W/m2
07:49 27.5 °F /  -2.5 °C 16.6 °F /  -8.6 °C 30.44in /  1030.7hPa NNW 1mph /  1.6km/h 10mph /  16.1km/h 63% 0.00in /  0mm 37 W/m2
07:54 27.7 °F /  -2.4 °C 16.7 °F /  -8.5 °C 30.44in /  1030.7hPa NNW 0.7mph /  1.1km/h 10mph /  16.1km/h 63% 0.00in /  0mm 53 W/m2
07:59 27.8 °F /  -2.3 °C 16.7 °F /  -8.5 °C 30.43in /  1030.4hPa NNW 5mph /  8km/h 11mph /  17.7km/h 62.7% 0.00in /  0mm 53 W/m2
08:00 27.8 °F /  -2.3 °C 16.5 °F /  -8.6 °C 30.43in /  1030.4hPa NW 6mph /  9.7km/h 11mph /  17.7km/h 62% 0.00in /  0mm 39 W/m2
08:09 27.8 °F /  -2.3 °C 16.5 °F /  -8.6 °C 30.43in /  1030.4hPa NW 2.3mph /  3.7km/h 10mph /  16.1km/h 62% 0.00in /  0mm 53 W/m2
08:14 27.9 °F /  -2.3 °C 16.6 °F /  -8.6 °C 30.43in /  1030.4hPa NNW 2.5mph /  4km/h 14mph /  22.5km/h 62% 0.00in /  0mm 53 W/m2
08:19 27.9 °F /  -2.3 °C 16.6 °F /  -8.6 °C 30.44in /  1030.7hPa NW 2.5mph /  4km/h 14mph /  22.5km/h 62% 0.00in /  0mm 56 W/m2
08:24 28 °F /  -2.2 °C 16.7 °F /  -8.5 °C 30.44in /  1030.7hPa NNW 3.5mph /  5.6km/h 14mph /  22.5km/h 61.9% 0.00in /  0mm 53 W/m2
08:29 28 °F /  -2.2 °C 16.4 °F /  -8.7 °C 30.44in /  1030.7hPa NW 2.8mph /  4.5km/h 14mph /  22.5km/h 61.2% 0.00in /  0mm 51 W/m2
08:34 28 °F /  -2.2 °C 16.6 °F /  -8.6 °C 30.43in /  1030.4hPa North 0.4mph /  0.6km/h 14mph /  22.5km/h 61.8% 0.00in /  0mm 44 W/m2
08:39 28 °F /  -2.2 °C 16.2 °F /  -8.8 °C 30.43in /  1030.4hPa NE 1.3mph /  2.1km/h 9mph /  14.5km/h 60.7% 0.00in /  0mm 42 W/m2
08:44 28 °F /  -2.2 °C 16.1 °F /  -8.8 °C 30.44in /  1030.7hPa NNW 2.8mph /  4.5km/h 10mph /  16.1km/h 60.4% 0.00in /  0mm 40 W/m2
08:49 28 °F /  -2.2 °C 15.7 °F /  -9.1 °C 30.46in /  1031.4hPa NNW 2.8mph /  4.5km/h 10mph /  16.1km/h 59.5% 0.00in /  0mm 46 W/m2
08:54 28 °F /  -2.2 °C 15.4 °F /  -9.2 °C 30.47in /  1031.7hPa NNW 3.1mph /  5km/h 10mph /  16.1km/h 58.6% 0.00in /  0mm 54 W/m2
08:59 28.1 °F /  -2.2 °C 15.2 °F /  -9.3 °C 30.47in /  1031.7hPa NNW 1.6mph /  2.6km/h 10mph /  16.1km/h 58% 0.00in /  0mm 51 W/m2
09:04 28.1 °F /  -2.2 °C 15.1 °F /  -9.4 °C 30.47in /  1031.7hPa NNW 2.1mph /  3.4km/h 10mph /  16.1km/h 57.7% 0.00in /  0mm 51 W/m2
09:09 28.2 °F /  -2.1 °C 15.2 °F /  -9.3 °C 30.47in /  1031.7hPa NNW 2mph /  3.2km/h 9mph /  14.5km/h 57.7% 0.00in /  0mm 54 W/m2
09:14 28.2 °F /  -2.1 °C 15.1 °F /  -9.4 °C 30.47in /  1031.7hPa NNW 0.3mph /  0.5km/h 9mph /  14.5km/h 57.5% 0.00in /  0mm 63 W/m2
09:19 28.3 °F /  -2.1 °C 15.5 °F /  -9.2 °C 30.47in /  1031.7hPa NNW 1.2mph /  1.9km/h 9mph /  14.5km/h 58% 0.00in /  0mm 84 W/m2
09:24 28.5 °F /  -1.9 °C 15.2 °F /  -9.3 °C 30.47in /  1031.7hPa NNW 1.1mph /  1.8km/h 9mph /  14.5km/h 57.1% 0.00in /  0mm 107 W/m2
09:29 28.5 °F /  -1.9 °C 14.6 °F /  -9.7 °C 30.46in /  1031.4hPa North 1.4mph /  2.3km/h 9mph /  14.5km/h 55.4% 0.00in /  0mm 107 W/m2
09:34 28.5 °F /  -1.9 °C 15 °F /  -9.4 °C 30.47in /  1031.7hPa NNW 1.9mph /  3.1km/h 9mph /  14.5km/h 56.4% 0.00in /  0mm 132 W/m2
09:39 28.7 °F /  -1.8 °C 15.5 °F /  -9.2 °C 30.48in /  1032.1hPa NNW 1.6mph /  2.6km/h 7mph /  11.3km/h 57.3% 0.00in /  0mm 127 W/m2
09:44 28.8 °F /  -1.8 °C 15 °F /  -9.4 °C 30.47in /  1031.7hPa NNW 1.4mph /  2.3km/h 8mph /  12.9km/h 55.9% 0.00in /  0mm 118 W/m2
09:49 28.9 °F /  -1.7 °C 15.4 °F /  -9.2 °C 30.48in /  1032.1hPa NW 2.2mph /  3.5km/h 10mph /  16.1km/h 56.7% 0.00in /  0mm 128 W/m2
09:54 29 °F /  -1.7 °C 15.4 °F /  -9.2 °C 30.48in /  1032.1hPa NNW 2.3mph /  3.7km/h 10mph /  16.1km/h 56.2% 0.00in /  0mm 125 W/m2
09:59 29 °F /  -1.7 °C 15.3 °F /  -9.3 °C 30.47in /  1031.7hPa NNW 2.4mph /  3.9km/h 10mph /  16.1km/h 56% 0.00in /  0mm 125 W/m2
10:04 29 °F /  -1.7 °C 15.2 °F /  -9.3 °C 30.47in /  1031.7hPa NW 3.2mph /  5.1km/h 11mph /  17.7km/h 55.8% 0.00in /  0mm 127 W/m2
10:09 28.9 °F /  -1.7 °C 14.8 °F /  -9.6 °C 30.46in /  1031.4hPa NNW 5.1mph /  8.2km/h 11mph /  17.7km/h 55% 0.00in /  0mm 135 W/m2
10:14 28.8 °F /  -1.8 °C 15 °F /  -9.4 °C 30.46in /  1031.4hPa NNW 4.3mph /  6.9km/h 11mph /  17.7km/h 55.8% 0.00in /  0mm 137 W/m2
10:19 28.9 °F /  -1.7 °C 15.1 °F /  -9.4 °C 30.46in /  1031.4hPa NNW 3.8mph /  6.1km/h 11mph /  17.7km/h 55.8% 0.00in /  0mm 141 W/m2
10:24 28.9 °F /  -1.7 °C 15 °F /  -9.4 °C 30.46in /  1031.4hPa NNE 2.5mph /  4km/h 11mph /  17.7km/h 55.5% 0.00in /  0mm 139 W/m2
10:29 28.9 °F /  -1.7 °C 14.8 °F /  -9.6 °C 30.47in /  1031.7hPa North 1.6mph /  2.6km/h 11mph /  17.7km/h 55% 0.00in /  0mm 100 W/m2
10:34 29 °F /  -1.7 °C 14.8 °F /  -9.6 °C 30.47in /  1031.7hPa NNW 3.1mph /  5km/h 11mph /  17.7km/h 54.7% 0.00in /  0mm 155 W/m2
10:39 28.9 °F /  -1.7 °C 14.6 °F /  -9.7 °C 30.47in /  1031.7hPa North 2mph /  3.2km/h 11mph /  17.7km/h 54.6% 0.00in /  0mm 151 W/m2
10:44 29 °F /  -1.7 °C 14.9 °F /  -9.5 °C 30.47in /  1031.7hPa NNW 1.7mph /  2.7km/h 11mph /  17.7km/h 55% 0.00in /  0mm 174 W/m2
10:49 29.1 °F /  -1.6 °C 15 °F /  -9.4 °C 30.47in /  1031.7hPa NW 2.8mph /  4.5km/h 11mph /  17.7km/h 55% 0.00in /  0mm 269 W/m2
10:54 29.3 °F /  -1.5 °C 14.8 °F /  -9.6 °C 30.46in /  1031.4hPa NW 1.6mph /  2.6km/h 11mph /  17.7km/h 54.2% 0.00in /  0mm 269 W/m2
10:59 29.5 °F /  -1.4 °C 15.1 °F /  -9.4 °C 30.46in /  1031.4hPa NNW 2.3mph /  3.7km/h 11mph /  17.7km/h 54.5% 0.00in /  0mm 220 W/m2
11:04 29.7 °F /  -1.3 °C 15.1 °F /  -9.4 °C 30.47in /  1031.7hPa NNW 2.5mph /  4km/h 11mph /  17.7km/h 54% 0.00in /  0mm 185 W/m2
11:09 29.8 °F /  -1.2 °C 15.1 °F /  -9.4 °C 30.46in /  1031.4hPa NNW 1.1mph /  1.8km/h 10mph /  16.1km/h 53.8% 0.00in /  0mm 218 W/m2
11:14 29.8 °F /  -1.2 °C 14.9 °F /  -9.5 °C 30.47in /  1031.7hPa NNE 1.2mph /  1.9km/h 10mph /  16.1km/h 53.4% 0.00in /  0mm 237 W/m2
11:19 29.8 °F /  -1.2 °C 14.6 °F /  -9.7 °C 30.47in /  1031.7hPa ENE 0.7mph /  1.1km/h 10mph /  16.1km/h 52.7% 0.00in /  0mm 218 W/m2
11:24 29.8 °F /  -1.2 °C 14 °F /  -10 °C 30.47in /  1031.7hPa NNE 2mph /  3.2km/h 10mph /  16.1km/h 51.2% 0.00in /  0mm 227 W/m2
11:29 29.9 °F /  -1.2 °C 14 °F /  -10 °C 30.47in /  1031.7hPa NNE 1mph /  1.6km/h 10mph /  16.1km/h 51% 0.00in /  0mm 295 W/m2
11:34 30.1 °F /  -1.1 °C 14.1 °F /  -9.9 °C 30.47in /  1031.7hPa North 1.5mph /  2.4km/h 10mph /  16.1km/h 50.8% 0.00in /  0mm 295 W/m2
11:39 30.3 °F /  -0.9 °C 14.4 °F /  -9.8 °C 30.47in /  1031.7hPa NNW 1.8mph /  2.9km/h 9mph /  14.5km/h 51% 0.00in /  0mm 271 W/m2
11:44 30.5 °F /  -0.8 °C 14.5 °F /  -9.7 °C 30.47in /  1031.7hPa NE 1.5mph /  2.4km/h 9mph /  14.5km/h 50.9% 0.00in /  0mm 213 W/m2
11:49 30.6 °F /  -0.8 °C 14.2 °F /  -9.9 °C 30.47in /  1031.7hPa NE 0.8mph /  1.3km/h 9mph /  14.5km/h 50% 0.00in /  0mm 227 W/m2
11:54 30.5 °F /  -0.8 °C 14 °F /  -10 °C 30.47in /  1031.7hPa NE 0.9mph /  1.4km/h 9mph /  14.5km/h 49.8% 0.00in /  0mm 230 W/m2
11:58 30.5 °F /  -0.8 °C 14.1 °F /  -9.9 °C 30.46in /  1031.4hPa NE 1.9mph /  3.1km/h 9mph /  14.5km/h 50% 0.00in /  0mm 244 W/m2
Hartford County Weather
Compliments of Weather Underground - 4 mb